Time;durP1;ratioP1;P1;durP2;ratioP2;P2;SDS_P1;SDS_P2;PMS_P1;PMS_P2;Temp;Humidity;BMP_temperature;BMP_pressure;BME280_temperature;BME280_humidity;BME280_pressure;Samples;Min_cycle;Max_cycle;Signal;HPM_P1;HPM_P2
2023/11/24 00:01:38;;;;;;;;;;;;;;;-7.42;85.33;96158.16;5006329;28;19948;-80
2023/11/24 00:04:04;;;;;;;;;;;;;;;-7.42;85.32;96152.84;5017278;28;19944;-80
2023/11/24 00:06:32;;;;;;;;;;;;;;;-7.40;85.34;96145.44;5024272;28;19925;-81
2023/11/24 00:08:58;;;;;;;;;;;;;;;-7.42;85.38;96139.56;5008283;28;19932;-80
2023/11/24 00:11:25;;;;;;;;;;;;;;;-7.35;85.09;96142.03;4983123;28;19925;-81
2023/11/24 00:13:51;;;;;;;;;;;;;;;-7.39;85.06;96143.59;5002082;28;20311;-81
2023/11/24 00:16:18;;;;;;;;;;;;;;;-7.42;84.57;96142.22;5015379;28;19926;-81
2023/11/24 00:18:45;;;;;;;;;;;;;;;-7.40;84.29;96148.09;5001034;28;19929;-74
2023/11/24 00:21:11;;;;;;;;;;;;;;;-7.36;84.59;96149.19;4968392;28;19925;-73
2023/11/24 00:23:37;;;;;;;;;;;;;;;-7.39;84.57;96139.06;4983563;28;19970;-73
2023/11/24 00:26:05;;;;;;;;;;;;;;;-7.38;84.51;96130.06;5011411;28;19933;-73
2023/11/24 00:28:31;;;;;;;;;;;;;;;-7.39;84.39;96125.00;5011159;28;20036;-73
2023/11/24 00:30:59;;;;;;;;;;;;;;;-7.43;84.32;96122.84;5002999;28;19925;-73
2023/11/24 00:33:28;;;;;;;;;;;;;;;-7.48;84.41;96111.38;4999466;28;19932;-73
2023/11/24 00:35:55;;;;;;;;;;;;;;;-7.52;84.54;96113.72;4987031;28;19932;-73
2023/11/24 00:38:22;;;;;;;;;;;;;;;-7.57;84.32;96098.53;5005295;28;20427;-81
2023/11/24 00:40:48;;;;;;;;;;;;;;;-7.50;84.69;96094.88;5019262;28;19969;-82
2023/11/24 00:43:13;;;;;;;;;;;;;;;-7.51;84.90;96098.59;5024384;28;20590;-80
2023/11/24 00:45:39;;;;;;;;;;;;;;;-7.52;84.98;96094.34;5018877;28;19928;-80
2023/11/24 00:48:08;;;;;;;;;;;;;;;-7.44;84.92;96080.63;5023538;28;19978;-80
2023/11/24 00:50:35;;;;;;;;;;;;;;;-7.34;84.93;96074.63;5005778;28;20400;-81
2023/11/24 00:53:01;;;;;;;;;;;;;;;-7.24;84.87;96064.09;4995238;28;19925;-81
2023/11/24 00:55:30;;;;;;;;;;;;;;;-7.17;85.03;96050.63;5005299;28;20315;-80
2023/11/24 00:57:55;;;;;;;;;;;;;;;-7.20;84.82;96057.22;5002789;28;19978;-82
2023/11/24 01:00:23;;;;;;;;;;;;;;;-7.20;85.04;96051.91;5009451;28;19929;-81
2023/11/24 01:02:49;;;;;;;;;;;;;;;-7.16;84.97;96044.25;5001835;28;19925;-81
2023/11/24 01:05:15;;;;;;;;;;;;;;;-7.14;85.16;96055.41;4984816;28;19926;-81
2023/11/24 01:07:43;;;;;;;;;;;;;;;-7.13;84.86;96049.06;5001317;28;19965;-81
2023/11/24 01:10:10;;;;;;;;;;;;;;;-7.09;84.70;96060.78;5004561;28;19925;-82
2023/11/24 01:12:38;;;;;;;;;;;;;;;-7.20;84.55;96048.44;5002855;28;19925;-80
2023/11/24 01:15:04;;;;;;;;;;;;;;;-7.11;84.89;96054.91;5018228;28;19977;-81
2023/11/24 01:17:30;;;;;;;;;;;;;;;-7.03;84.66;96045.69;5000290;28;19932;-81
2023/11/24 01:19:56;;;;;;;;;;;;;;;-6.98;84.59;96041.22;4969195;28;19930;-81
2023/11/24 01:22:24;;;;;;;;;;;;;;;-6.97;84.24;96031.38;4982415;28;20053;-81
2023/11/24 01:24:52;;;;;;;;;;;;;;;-7.00;83.71;96023.91;5004665;28;19936;-81
2023/11/24 01:27:18;;;;;;;;;;;;;;;-7.05;83.44;96014.06;5080777;28;19923;-81
2023/11/24 01:29:44;;;;;;;;;;;;;;;-7.13;83.46;96003.91;5002151;28;19925;-81
2023/11/24 01:32:10;;;;;;;;;;;;;;;-7.18;84.05;95995.88;4991823;28;19932;-82
2023/11/24 01:34:35;;;;;;;;;;;;;;;-7.21;83.97;95989.25;5000277;28;20019;-82
2023/11/24 01:37:02;;;;;;;;;;;;;;;-7.26;84.27;95979.38;5000359;28;19926;-74
2023/11/24 01:39:28;;;;;;;;;;;;;;;-7.26;84.28;95967.94;4998742;28;19986;-74
2023/11/24 01:41:56;;;;;;;;;;;;;;;-7.22;84.41;95978.88;4998780;28;19929;-73
2023/11/24 01:44:22;;;;;;;;;;;;;;;-7.31;83.54;95973.22;5004059;28;19932;-74
2023/11/24 01:46:48;;;;;;;;;;;;;;;-7.38;83.48;95954.84;4998168;28;20562;-74
2023/11/24 01:49:14;;;;;;;;;;;;;;;-7.41;83.90;95958.84;4981951;28;19936;-73
2023/11/24 01:51:41;;;;;;;;;;;;;;;-7.42;84.09;95953.78;4986691;28;20438;-73
2023/11/24 01:54:07;;;;;;;;;;;;;;;-7.37;84.13;95955.66;5004206;28;20094;-74
2023/11/24 01:56:33;;;;;;;;;;;;;;;-7.31;83.92;95944.84;4998524;28;20347;-73
2023/11/24 01:59:02;;;;;;;;;;;;;;;-7.19;84.35;95943.84;5002220;28;19932;-73
2023/11/24 02:01:29;;;;;;;;;;;;;;;-7.18;84.16;95932.16;4997592;28;20767;-74
2023/11/24 02:03:55;;;;;;;;;;;;;;;-7.20;83.65;95927.13;5002509;28;19951;-73
2023/11/24 02:06:21;;;;;;;;;;;;;;;-7.14;83.50;95922.66;4997469;28;19982;-74
2023/11/24 02:08:47;;;;;;;;;;;;;;;-7.13;83.29;95926.91;5011979;28;20466;-74
2023/11/24 02:11:14;;;;;;;;;;;;;;;-7.15;83.23;95932.47;5017930;28;20391;-73
2023/11/24 02:13:41;;;;;;;;;;;;;;;-7.19;83.34;95922.59;5018436;28;19950;-74
2023/11/24 02:16:09;;;;;;;;;;;;;;;-7.18;83.62;95916.22;5019738;28;19928;-74
2023/11/24 02:18:35;;;;;;;;;;;;;;;-7.19;83.82;95914.63;5017702;28;19929;-74
2023/11/24 02:21:21;;;;;;;;;;;;;;;-7.24;84.03;95906.63;5001894;28;19995;-73
2023/11/24 02:23:49;;;;;;;;;;;;;;;-7.23;84.11;95908.25;5001318;28;20327;-73
2023/11/24 02:26:18;;;;;;;;;;;;;;;-7.20;84.41;95899.75;4999298;28;20021;-74
2023/11/24 02:28:44;;;;;;;;;;;;;;;-7.21;84.37;95891.00;4998245;28;20027;-74
2023/11/24 02:31:11;;;;;;;;;;;;;;;-7.23;84.36;95890.47;4984319;28;20032;-74
2023/11/24 02:33:40;;;;;;;;;;;;;;;-7.18;84.27;95885.19;5004331;28;19947;-73
2023/11/24 02:36:08;;;;;;;;;;;;;;;-7.19;84.07;95888.88;4999735;28;19932;-74
2023/11/24 02:38:34;;;;;;;;;;;;;;;-7.18;84.13;95885.19;5004591;28;19951;-74
2023/11/24 02:41:02;;;;;;;;;;;;;;;-7.15;83.87;95876.69;4999779;28;19929;-74
2023/11/24 02:43:28;;;;;;;;;;;;;;;-7.12;84.22;95881.47;4999213;28;20399;-74
2023/11/24 02:45:54;;;;;;;;;;;;;;;-7.08;84.13;95870.38;4982351;28;19978;-74
2023/11/24 02:48:19;;;;;;;;;;;;;;;-7.07;84.56;95871.97;5006222;28;19926;-74
2023/11/24 02:50:45;;;;;;;;;;;;;;;-7.03;84.18;95865.06;4964990;28;19931;-74
2023/11/24 02:53:11;;;;;;;;;;;;;;;-7.08;83.66;95863.19;4983120;28;20337;-81
2023/11/24 02:55:38;;;;;;;;;;;;;;;-7.17;83.88;95857.56;4999288;28;19929;-80
2023/11/24 02:58:05;;;;;;;;;;;;;;;-7.17;83.90;95862.09;5003052;28;19926;-82
2023/11/24 03:00:31;;;;;;;;;;;;;;;-7.26;83.95;95862.56;4999009;28;19925;-81
2023/11/24 03:02:59;;;;;;;;;;;;;;;-7.31;84.38;95861.72;4983231;28;19929;-82
2023/11/24 03:05:25;;;;;;;;;;;;;;;-7.40;84.47;95840.19;4999882;28;19929;-82
2023/11/24 03:07:51;;;;;;;;;;;;;;;-7.26;84.39;95849.28;5005988;28;19936;-81
2023/11/24 03:10:16;;;;;;;;;;;;;;;-7.33;84.30;95835.47;5002580;28;20015;-81
2023/11/24 03:12:43;;;;;;;;;;;;;;;-7.24;84.47;95849.03;5011915;28;20462;-82
2023/11/24 03:15:11;;;;;;;;;;;;;;;-7.18;84.98;95844.53;5007030;28;20024;-81
2023/11/24 03:17:36;;;;;;;;;;;;;;;-7.15;84.96;95842.16;5004363;28;19925;-81
2023/11/24 03:20:02;;;;;;;;;;;;;;;-7.11;84.96;95834.50;5005271;28;19936;-82
2023/11/24 03:22:28;;;;;;;;;;;;;;;-7.05;84.86;95830.00;5005400;28;20332;-81
2023/11/24 03:24:54;;;;;;;;;;;;;;;-7.05;85.04;95814.06;5003879;28;20411;-82
2023/11/24 03:27:20;;;;;;;;;;;;;;;-7.01;85.01;95821.28;5011798;28;19928;-82
2023/11/24 03:29:48;;;;;;;;;;;;;;;-7.00;84.68;95825.53;5023518;28;19932;-74
2023/11/24 03:32:15;;;;;;;;;;;;;;;-7.03;84.53;95827.88;4993813;28;20400;-74
2023/11/24 03:34:41;;;;;;;;;;;;;;;-7.10;84.79;95830.78;4997956;28;19971;-74
2023/11/24 03:37:06;;;;;;;;;;;;;;;-7.10;84.73;95829.97;5001001;28;19925;-74
2023/11/24 03:39:32;;;;;;;;;;;;;;;-7.07;84.99;95819.63;4985551;28;19929;-74
2023/11/24 03:41:58;;;;;;;;;;;;;;;-7.07;85.01;95805.56;4993222;28;19925;-74
2023/11/24 03:44:24;;;;;;;;;;;;;;;-7.09;84.98;95797.84;5021710;28;19931;-74
2023/11/24 03:46:50;;;;;;;;;;;;;;;-7.10;85.17;95798.91;5023383;28;20035;-75
2023/11/24 03:49:17;;;;;;;;;;;;;;;-7.09;85.22;95797.84;5014834;28;19929;-74
2023/11/24 03:51:43;;;;;;;;;;;;;;;-7.02;85.15;95806.41;5012859;28;19926;-74
2023/11/24 03:54:08;;;;;;;;;;;;;;;-6.94;85.39;95806.94;5001530;28;19932;-74
2023/11/24 03:56:34;;;;;;;;;;;;;;;-6.88;85.36;95801.38;4990272;28;19975;-74
2023/11/24 03:59:00;;;;;;;;;;;;;;;-6.91;85.26;95782.50;5005217;28;19953;-74
2023/11/24 04:01:26;;;;;;;;;;;;;;;-6.84;85.59;95797.16;5016923;28;19925;-75
2023/11/24 04:03:54;;;;;;;;;;;;;;;-6.85;85.42;95779.59;5010860;28;19925;-73
2023/11/24 04:06:21;;;;;;;;;;;;;;;-6.80;85.62;95778.03;5003658;28;19978;-73
2023/11/24 04:08:47;;;;;;;;;;;;;;;-6.79;85.80;95776.94;5018946;28;19925;-73
2023/11/24 04:11:13;;;;;;;;;;;;;;;-6.75;86.19;95778.84;5013250;28;19970;-81
2023/11/24 04:13:40;;;;;;;;;;;;;;;-6.72;86.16;95783.63;5002327;28;20486;-80
2023/11/24 04:16:06;;;;;;;;;;;;;;;-6.72;86.01;95780.97;5004354;28;19926;-81
2023/11/24 04:18:32;;;;;;;;;;;;;;;-6.72;86.05;95770.34;5003053;28;19982;-74
2023/11/24 04:20:58;;;;;;;;;;;;;;;-6.70;85.81;95780.72;5002364;28;19929;-83
2023/11/24 04:23:26;;;;;;;;;;;;;;;-6.72;86.14;95767.66;5021737;28;19971;-82
2023/11/24 04:25:52;;;;;;;;;;;;;;;-6.69;86.46;95758.38;4991075;28;19929;-82
2023/11/24 04:28:20;;;;;;;;;;;;;;;-6.63;86.39;95749.38;5002582;28;20475;-74
2023/11/24 04:30:46;;;;;;;;;;;;;;;-6.60;86.34;95751.50;4999172;28;19968;-79
2023/11/24 04:33:12;;;;;;;;;;;;;;;-6.57;86.21;95742.19;5002714;28;19930;-80
2023/11/24 04:35:38;;;;;;;;;;;;;;;-6.57;85.89;95740.34;5000624;28;20905;-81
2023/11/24 04:38:03;;;;;;;;;;;;;;;-6.60;85.83;95735.56;5001106;28;19925;-81
2023/11/24 04:40:31;;;;;;;;;;;;;;;-6.60;85.74;95743.53;4976492;28;19971;-81
2023/11/24 04:42:57;;;;;;;;;;;;;;;-6.63;85.76;95745.91;4977122;28;20075;-81
2023/11/24 04:45:23;;;;;;;;;;;;;;;-6.65;85.56;95737.41;5001816;28;19930;-81
2023/11/24 04:47:48;;;;;;;;;;;;;;;-6.65;86.35;95732.88;4990806;28;19975;-81
2023/11/24 04:50:16;;;;;;;;;;;;;;;-6.71;86.12;95728.63;4979795;28;20414;-80
2023/11/24 04:52:42;;;;;;;;;;;;;;;-6.81;86.10;95732.06;4992696;28;19947;-80
2023/11/24 04:55:08;;;;;;;;;;;;;;;-6.82;86.62;95724.34;5004790;28;19926;-80
2023/11/24 04:57:35;;;;;;;;;;;;;;;-6.74;86.92;95727.28;4989818;28;19925;-81
2023/11/24 05:00:01;;;;;;;;;;;;;;;-6.71;86.69;95724.13;5016591;28;19974;-81
2023/11/24 05:02:29;;;;;;;;;;;;;;;-6.66;87.05;95714.56;4997925;28;19936;-82
2023/11/24 05:04:55;;;;;;;;;;;;;;;-6.64;86.73;95721.19;5000908;28;19925;-81
2023/11/24 05:07:23;;;;;;;;;;;;;;;-6.67;86.70;95712.97;5000585;28;19929;-81
2023/11/24 05:09:49;;;;;;;;;;;;;;;-6.66;86.88;95715.34;5001650;28;19929;-80
2023/11/24 05:12:15;;;;;;;;;;;;;;;-6.67;86.67;95705.78;5003853;28;19948;-80
2023/11/24 05:14:51;;;;;;;;;;;;;;;-6.61;86.44;95707.38;5007308;28;19932;-81
2023/11/24 05:17:19;;;;;;;;;;;;;;;-6.61;86.41;95712.72;4966923;28;19926;-81
2023/11/24 05:19:45;;;;;;;;;;;;;;;-6.61;86.77;95711.91;5009748;28;20032;-81
2023/11/24 05:22:11;;;;;;;;;;;;;;;-6.59;87.17;95712.44;5007726;28;19957;-80
2023/11/24 05:24:39;;;;;;;;;;;;;;;-6.57;87.38;95712.94;4989555;28;20450;-81
2023/11/24 05:27:05;;;;;;;;;;;;;;;-6.61;87.53;95714.56;5004651;28;19926;-81
2023/11/24 05:29:31;;;;;;;;;;;;;;;-6.64;87.65;95709.78;5004610;28;19926;-81
2023/11/24 05:31:59;;;;;;;;;;;;;;;-6.65;87.40;95702.88;4996809;28;20170;-82
2023/11/24 05:34:25;;;;;;;;;;;;;;;-6.71;87.23;95705.53;4996418;28;19990;-79
2023/11/24 05:36:52;;;;;;;;;;;;;;;-6.78;87.24;95693.56;4993123;28;19972;-79
2023/11/24 05:39:18;;;;;;;;;;;;;;;-6.67;87.06;95697.03;5002081;28;19932;-74
2023/11/24 05:41:45;;;;;;;;;;;;;;;-6.66;86.97;95704.72;4995083;28;20386;-74
2023/11/24 05:44:11;;;;;;;;;;;;;;;-6.69;86.87;95686.66;4995712;28;19978;-74
2023/11/24 05:46:40;;;;;;;;;;;;;;;-6.61;86.68;95695.94;4975252;28;19948;-74
2023/11/24 05:49:08;;;;;;;;;;;;;;;-6.63;86.68;95682.13;4971693;28;19978;-74
2023/11/24 05:51:34;;;;;;;;;;;;;;;-6.64;86.43;95691.94;4992832;28;20044;-74
2023/11/24 05:54:00;;;;;;;;;;;;;;;-6.64;86.01;95696.47;4994989;28;20047;-74
2023/11/24 05:56:26;;;;;;;;;;;;;;;-6.66;85.73;95694.06;4994973;28;19925;-74
2023/11/24 05:58:51;;;;;;;;;;;;;;;-6.62;86.02;95691.69;5002845;28;19925;-74
2023/11/24 06:01:20;;;;;;;;;;;;;;;-6.56;86.60;95687.97;4999261;28;19926;-74
2023/11/24 06:03:45;;;;;;;;;;;;;;;-6.52;86.70;95685.59;5003164;28;19956;-74
2023/11/24 06:06:13;;;;;;;;;;;;;;;-6.49;86.15;95685.03;4994788;28;19925;-74
2023/11/24 06:08:39;;;;;;;;;;;;;;;-6.43;85.88;95678.69;4996854;28;19926;-74
2023/11/24 06:11:05;;;;;;;;;;;;;;;-6.44;85.59;95672.56;4993215;28;20295;-74
2023/11/24 06:13:31;;;;;;;;;;;;;;;-6.49;85.40;95667.25;5000171;28;19932;-74
2023/11/24 06:15:57;;;;;;;;;;;;;;;-6.52;85.21;95664.31;4999142;28;19948;-83
2023/11/24 06:18:24;;;;;;;;;;;;;;;-6.56;85.34;95658.72;5004033;28;19988;-82
2023/11/24 06:20:50;;;;;;;;;;;;;;;-6.50;85.23;95660.34;4986068;28;19926;-74
2023/11/24 06:23:19;;;;;;;;;;;;;;;-6.47;84.80;95661.69;5002006;28;19925;-84
2023/11/24 06:25:45;;;;;;;;;;;;;;;-6.43;85.05;95663.53;5006020;28;19930;-84
2023/11/24 06:28:11;;;;;;;;;;;;;;;-6.36;84.91;95663.25;4999463;28;19957;-84
2023/11/24 06:30:38;;;;;;;;;;;;;;;-6.32;84.57;95669.66;5007393;28;19957;-84
2023/11/24 06:33:07;;;;;;;;;;;;;;;-6.33;84.26;95664.59;5005248;28;19926;-83
2023/11/24 06:35:32;;;;;;;;;;;;;;;-6.34;84.23;95663.78;4999071;28;19975;-83
2023/11/24 06:37:58;;;;;;;;;;;;;;;-6.25;83.93;95653.41;4999666;28;20300;-84
2023/11/24 06:40:27;;;;;;;;;;;;;;;-6.16;83.79;95662.44;4997515;28;20083;-82
2023/11/24 06:42:53;;;;;;;;;;;;;;;-6.14;83.36;95665.63;4990293;28;20020;-82
2023/11/24 06:45:18;;;;;;;;;;;;;;;-6.08;83.43;95652.31;5005010;28;20031;-74
2023/11/24 06:47:45;;;;;;;;;;;;;;;-5.98;83.25;95662.91;5006396;28;20303;-74
2023/11/24 06:50:12;;;;;;;;;;;;;;;-5.94;83.01;95650.63;5044644;28;19930;-74
2023/11/24 06:52:38;;;;;;;;;;;;;;;-5.91;82.65;95657.28;5011957;28;19925;-74
2023/11/24 06:55:06;;;;;;;;;;;;;;;-5.99;82.14;95654.13;5003823;28;19971;-74
2023/11/24 06:57:33;;;;;;;;;;;;;;;-6.09;81.98;95653.38;4970643;28;19925;-74
2023/11/24 06:59:59;;;;;;;;;;;;;;;-6.10;82.39;95647.25;5002970;28;19925;-74
2023/11/24 07:02:25;;;;;;;;;;;;;;;-6.09;82.21;95646.19;5005252;28;20332;-74
2023/11/24 07:04:52;;;;;;;;;;;;;;;-6.11;82.08;95648.34;4974155;28;20108;-74
2023/11/24 07:07:19;;;;;;;;;;;;;;;-6.11;81.97;95643.00;5008056;28;19929;-74
2023/11/24 07:09:44;;;;;;;;;;;;;;;-6.00;82.24;95646.41;4982622;28;19926;-81
2023/11/24 07:12:17;;;;;;;;;;;;;;;-5.92;81.32;95631.75;4989475;28;19936;-81
2023/11/24 07:14:44;;;;;;;;;;;;;;;-5.92;80.60;95640.56;4985750;28;19930;-81
2023/11/24 07:17:12;;;;;;;;;;;;;;;-6.00;80.35;95638.44;4984783;28;19925;-81
2023/11/24 07:19:38;;;;;;;;;;;;;;;-6.12;79.82;95636.88;5001702;28;19994;-74
2023/11/24 07:22:04;;;;;;;;;;;;;;;-6.16;80.46;95638.50;4988635;28;19925;-74
2023/11/24 07:24:30;;;;;;;;;;;;;;;-6.09;80.42;95640.06;4989409;28;19925;-74
2023/11/24 07:26:55;;;;;;;;;;;;;;;-6.04;80.17;95640.84;5008399;28;19964;-74
2023/11/24 07:29:21;;;;;;;;;;;;;;;-6.01;79.68;95648.28;5004035;28;19970;-74
2023/11/24 07:31:49;;;;;;;;;;;;;;;-6.09;79.51;95645.38;4997527;28;20371;-74
2023/11/24 07:34:15;;;;;;;;;;;;;;;-6.07;79.64;95643.28;5009611;28;19929;-74
2023/11/24 07:36:41;;;;;;;;;;;;;;;-5.98;79.61;95644.28;4992362;28;20421;-74
2023/11/24 07:39:10;;;;;;;;;;;;;;;-5.96;79.02;95642.13;5004846;28;20011;-74
2023/11/24 07:41:36;;;;;;;;;;;;;;;-5.96;79.17;95644.81;4987677;28;19929;-74
2023/11/24 07:44:02;;;;;;;;;;;;;;;-5.90;79.33;95641.06;5004399;28;19933;-74
2023/11/24 07:46:28;;;;;;;;;;;;;;;-5.85;79.19;95635.72;5005383;28;19925;-74
2023/11/24 07:48:55;;;;;;;;;;;;;;;-5.87;78.59;95637.88;5007563;28;20032;-74
2023/11/24 07:51:21;;;;;;;;;;;;;;;-5.88;78.54;95635.47;5009951;28;19929;-74
2023/11/24 07:53:47;;;;;;;;;;;;;;;-5.85;78.63;95637.59;5006475;28;20411;-82
2023/11/24 07:56:13;;;;;;;;;;;;;;;-5.78;78.66;95637.28;4990114;28;19987;-81
2023/11/24 07:58:39;;;;;;;;;;;;;;;-5.77;78.40;95629.03;5040104;28;19927;-82
2023/11/24 08:01:05;;;;;;;;;;;;;;;-5.78;78.45;95629.31;5064697;28;19939;-74
2023/11/24 08:03:32;;;;;;;;;;;;;;;-5.74;78.50;95635.69;4988331;28;19925;-74
2023/11/24 08:06:06;;;;;;;;;;;;;;;-5.60;78.72;95631.38;5004063;28;19940;-74
2023/11/24 08:08:32;;;;;;;;;;;;;;;-5.55;78.33;95622.56;5017080;28;20093;-74
2023/11/24 08:10:58;;;;;;;;;;;;;;;-5.52;78.17;95629.22;5070487;28;20459;-82
2023/11/24 08:13:23;;;;;;;;;;;;;;;-5.58;77.87;95629.25;4968856;28;19926;-83
2023/11/24 08:15:49;;;;;;;;;;;;;;;-5.56;78.10;95620.97;4987277;28;20012;-82
2023/11/24 08:18:15;;;;;;;;;;;;;;;-5.54;77.92;95632.16;4983577;28;20016;-74
2023/11/24 08:20:42;;;;;;;;;;;;;;;-5.57;77.60;95633.50;4970269;28;19925;-74
2023/11/24 08:23:13;;;;;;;;;;;;;;;-5.56;77.75;95636.94;4998299;28;20069;-75
2023/11/24 08:25:39;;;;;;;;;;;;;;;-5.45;78.10;95627.84;4997289;28;19925;-74
2023/11/24 08:28:05;;;;;;;;;;;;;;;-5.32;77.29;95630.97;5000335;28;20036;-74
2023/11/24 08:30:32;;;;;;;;;;;;;;;-5.25;77.32;95630.69;5000887;28;20028;-74
2023/11/24 08:32:58;;;;;;;;;;;;;;;-5.16;77.02;95611.19;5002821;28;20395;-82
2023/11/24 08:35:27;;;;;;;;;;;;;;;-5.05;76.70;95619.91;5006427;28;19987;-82
2023/11/24 08:37:53;;;;;;;;;;;;;;;-4.94;76.59;95609.97;5004624;28;19932;-83
2023/11/24 08:40:21;;;;;;;;;;;;;;;-4.96;76.43;95606.00;5067960;28;19926;-82
2023/11/24 08:42:48;;;;;;;;;;;;;;;-4.99;76.13;95610.00;5001561;28;19947;-82
2023/11/24 08:45:16;;;;;;;;;;;;;;;-4.94;76.14;95604.63;5009967;28;19930;-84
2023/11/24 08:47:42;;;;;;;;;;;;;;;-4.91;76.08;95603.28;5008762;28;19926;-83
2023/11/24 08:50:18;;;;;;;;;;;;;;;-4.87;76.20;95604.31;5008316;28;19954;-83
2023/11/24 08:52:47;;;;;;;;;;;;;;;-4.85;76.01;95597.66;5043926;28;19930;-84
2023/11/24 08:55:13;;;;;;;;;;;;;;;-4.86;75.79;95604.06;5085796;28;20032;-75
2023/11/24 08:57:42;;;;;;;;;;;;;;;-4.80;76.05;95599.47;4987436;28;20463;-75
2023/11/24 09:00:11;;;;;;;;;;;;;;;-4.77;75.88;95600.78;4980393;28;19933;-75
2023/11/24 09:02:37;;;;;;;;;;;;;;;-4.76;75.88;95603.16;5003432;28;19926;-82
2023/11/24 09:05:04;;;;;;;;;;;;;;;-4.62;75.34;95600.66;5000447;28;20376;-82
2023/11/24 09:07:30;;;;;;;;;;;;;;;-4.46;74.94;95596.00;5001656;28;19951;-82
2023/11/24 09:09:56;;;;;;;;;;;;;;;-4.27;74.28;95588.09;4999169;28;19925;-83
2023/11/24 09:12:22;;;;;;;;;;;;;;;-4.09;73.93;95591.09;5048374;28;19932;-75
2023/11/24 09:14:50;;;;;;;;;;;;;;;-3.89;73.00;95591.94;5000850;28;20394;-74
2023/11/24 09:17:16;;;;;;;;;;;;;;;-3.85;72.52;95592.97;5006806;28;19932;-75
2023/11/24 09:19:42;;;;;;;;;;;;;;;-3.67;72.55;95593.28;5005740;28;20318;-74
2023/11/24 09:22:10;;;;;;;;;;;;;;;-3.51;71.82;95585.88;5022135;28;19996;-75
2023/11/24 09:24:36;;;;;;;;;;;;;;;-3.35;71.84;95589.16;5003920;28;19957;-81
2023/11/24 09:27:16;;;;;;;;;;;;;;;-3.26;71.12;95592.75;5006002;28;20063;-74
2023/11/24 09:29:44;;;;;;;;;;;;;;;-3.18;70.56;95591.31;4983437;28;19924;-83
2023/11/24 09:32:13;;;;;;;;;;;;;;;-3.26;70.49;95595.44;4998395;28;20028;-74
2023/11/24 09:34:43;;;;;;;;;;;;;;;-3.23;70.51;95589.50;4985990;28;19936;-74
2023/11/24 09:37:11;;;;;;;;;;;;;;;-3.19;70.17;95595.06;4986000;28;20049;-83
2023/11/24 09:39:38;;;;;;;;;;;;;;;-3.10;69.93;95587.19;4988320;28;19929;-74
2023/11/24 09:42:12;;;;;;;;;;;;;;;-3.09;69.65;95586.13;5022066;28;19947;-82
2023/11/24 09:44:42;;;;;;;;;;;;;;;-3.10;69.95;95592.53;4999885;28;19918;-74
2023/11/24 09:47:12;;;;;;;;;;;;;;;-3.08;69.96;95593.84;4984047;28;19925;-82
2023/11/24 09:49:44;;;;;;;;;;;;;;;-3.20;70.21;95602.31;5015520;28;19933;-82
2023/11/24 09:52:13;;;;;;;;;;;;;;;-3.46;69.96;95604.50;4986003;28;19925;-74
2023/11/24 09:54:42;;;;;;;;;;;;;;;-3.52;70.62;95600.31;5001024;28;20643;-74
2023/11/24 09:57:11;;;;;;;;;;;;;;;-3.57;70.95;95599.31;4983856;28;19933;-81
2023/11/24 09:59:43;;;;;;;;;;;;;;;-3.73;70.66;95601.38;4990581;28;19925;-82
2023/11/24 10:02:12;;;;;;;;;;;;;;;-3.88;71.45;95605.03;5004603;28;19997;-80
2023/11/24 10:04:40;;;;;;;;;;;;;;;-3.83;71.67;95598.81;5002460;28;19971;-73
2023/11/24 10:07:13;;;;;;;;;;;;;;;-3.78;71.50;95609.44;4982015;28;19925;-81
2023/11/24 10:09:39;;;;;;;;;;;;;;;-3.89;71.41;95613.31;5011823;28;20403;-81
2023/11/24 10:12:06;;;;;;;;;;;;;;;-4.08;71.28;95618.56;5004206;28;19947;-73
2023/11/24 10:14:33;;;;;;;;;;;;;;;-4.17;71.86;95611.19;4997735;28;20450;-81
2023/11/24 10:17:01;;;;;;;;;;;;;;;-4.19;72.14;95616.00;4982624;28;19932;-80
2023/11/24 10:19:27;;;;;;;;;;;;;;;-4.15;72.12;95608.22;5001719;28;19925;-81
2023/11/24 10:21:58;;;;;;;;;;;;;;;-4.15;72.15;95622.38;5002044;28;19972;-81
2023/11/24 10:24:25;;;;;;;;;;;;;;;-4.14;72.53;95602.63;5013532;28;19970;-80
2023/11/24 10:26:51;;;;;;;;;;;;;;;-4.04;72.18;95611.59;5008057;28;19925;-80
2023/11/24 10:29:19;;;;;;;;;;;;;;;-3.94;71.92;95616.03;5019434;28;19936;-80
2023/11/24 10:31:45;;;;;;;;;;;;;;;-3.94;71.80;95613.38;5032142;28;19929;-79
2023/11/24 10:34:11;;;;;;;;;;;;;;;-4.01;71.51;95611.81;5011335;28;19947;-78
2023/11/24 10:36:41;;;;;;;;;;;;;;;-4.08;71.65;95615.91;5039498;28;19923;-78
2023/11/24 10:39:12;;;;;;;;;;;;;;;-4.16;72.26;95618.13;5013045;28;19968;-72
2023/11/24 10:41:41;;;;;;;;;;;;;;;-4.18;73.07;95620.28;5027098;28;19925;-79
2023/11/24 10:44:09;;;;;;;;;;;;;;;-4.21;73.87;95612.03;4992777;28;19925;-79
2023/11/24 10:46:36;;;;;;;;;;;;;;;-4.21;73.73;95615.50;5100794;28;19928;-78
2023/11/24 10:49:06;;;;;;;;;;;;;;;-4.25;74.00;95614.47;5054979;28;19925;-72
2023/11/24 10:51:40;;;;;;;;;;;;;;;-4.25;73.10;95611.00;5009606;28;20129;-73
2023/11/24 10:54:07;;;;;;;;;;;;;;;-4.38;72.67;95612.44;5001016;28;19925;-73
2023/11/24 10:56:41;;;;;;;;;;;;;;;-4.58;72.57;95624.88;4991434;28;19951;-79
2023/11/24 10:59:09;;;;;;;;;;;;;;;-4.61;73.06;95625.44;4992894;28;19920;-79
2023/11/24 11:01:35;;;;;;;;;;;;;;;-4.62;72.95;95619.31;5044824;28;20024;-79
2023/11/24 11:04:27;;;;;;;;;;;;;;;-4.63;72.71;95619.59;5028933;28;19909;-79
2023/11/24 11:07:08;;;;;;;;;;;;;;;-4.60;73.05;95627.03;5014469;28;19990;-80
2023/11/24 11:09:51;;;;;;;;;;;;;;;-4.62;73.00;95629.97;5012303;28;19930;-77
2023/11/24 11:12:32;;;;;;;;;;;;;;;-4.68;72.96;95641.75;4993070;28;19974;-78
2023/11/24 11:15:01;;;;;;;;;;;;;;;-4.73;73.14;95649.81;5003427;28;20391;-79
2023/11/24 11:17:27;;;;;;;;;;;;;;;-4.75;73.22;95659.97;5027973;28;19947;-79
2023/11/24 11:19:59;;;;;;;;;;;;;;;-4.75;73.29;95659.97;5038306;28;19909;-80
2023/11/24 11:22:28;;;;;;;;;;;;;;;-4.76;73.56;95661.00;5005001;28;19937;-72
2023/11/24 11:24:55;;;;;;;;;;;;;;;-4.75;73.46;95655.41;4982016;28;19929;-74
2023/11/24 11:27:26;;;;;;;;;;;;;;;-4.77;73.42;95670.06;5001751;28;19964;-74
2023/11/24 11:29:53;;;;;;;;;;;;;;;-4.76;73.41;95669.00;4954991;28;19925;-73
2023/11/24 11:32:22;;;;;;;;;;;;;;;-4.79;73.40;95682.88;4984578;28;19932;-74
2023/11/24 11:34:48;;;;;;;;;;;;;;;-4.78;73.37;95681.81;5001205;28;19926;-74
2023/11/24 11:37:14;;;;;;;;;;;;;;;-4.82;73.32;95683.44;4987693;28;19925;-74
2023/11/24 11:39:57;;;;;;;;;;;;;;;-4.90;73.44;95684.81;5005535;28;19976;-73
2023/11/24 11:42:23;;;;;;;;;;;;;;;-4.91;73.59;95680.56;5001813;28;19970;-74
2023/11/24 11:44:56;;;;;;;;;;;;;;;-5.00;73.56;95688.34;5003492;28;19925;-73
2023/11/24 11:47:26;;;;;;;;;;;;;;;-5.05;73.78;95693.72;4983417;28;19978;-73
2023/11/24 11:49:53;;;;;;;;;;;;;;;-5.10;73.95;95689.19;5002910;28;19925;-74
2023/11/24 11:52:20;;;;;;;;;;;;;;;-5.15;73.99;95694.53;5002416;28;20027;-74
2023/11/24 11:54:47;;;;;;;;;;;;;;;-5.14;73.93;95698.81;5002179;28;19925;-81
2023/11/24 11:57:13;;;;;;;;;;;;;;;-5.16;74.24;95703.59;5001139;28;20261;-79
2023/11/24 11:59:39;;;;;;;;;;;;;;;-5.17;74.15;95700.16;4985797;28;19948;-73
2023/11/24 12:02:08;;;;;;;;;;;;;;;-5.22;74.46;95702.03;4999957;28;20028;-73
2023/11/24 12:04:35;;;;;;;;;;;;;;;-5.28;74.50;95698.59;5002981;28;19925;-73
2023/11/24 12:07:01;;;;;;;;;;;;;;;-5.31;74.44;95709.81;5001753;28;20008;-74
2023/11/24 12:09:28;;;;;;;;;;;;;;;-5.41;74.69;95715.97;5003060;28;19925;-74
2023/11/24 12:11:56;;;;;;;;;;;;;;;-5.40;74.83;95717.56;5001153;28;19936;-74
2023/11/24 12:14:21;;;;;;;;;;;;;;;-5.41;75.11;95724.75;5000950;28;19994;-73
2023/11/24 12:16:47;;;;;;;;;;;;;;;-5.42;75.05;95731.13;5000272;28;19925;-73
2023/11/24 12:19:15;;;;;;;;;;;;;;;-5.43;75.28;95734.88;4998200;28;19925;-74
2023/11/24 12:21:42;;;;;;;;;;;;;;;-5.39;75.06;95735.13;5002006;28;19937;-72
2023/11/24 12:24:09;;;;;;;;;;;;;;;-5.37;75.29;95746.31;5001458;28;19925;-72
2023/11/24 12:26:35;;;;;;;;;;;;;;;-5.32;75.45;95748.16;5014169;28;19930;-80
2023/11/24 12:29:01;;;;;;;;;;;;;;;-5.30;75.29;95752.16;5042879;28;19932;-80
2023/11/24 12:31:27;;;;;;;;;;;;;;;-5.31;75.33;95753.22;5017199;28;19926;-80
2023/11/24 12:33:53;;;;;;;;;;;;;;;-5.35;75.39;95762.81;5009405;28;19933;-79
2023/11/24 12:36:21;;;;;;;;;;;;;;;-5.42;75.89;95767.63;5005312;28;19925;-80
2023/11/24 12:38:48;;;;;;;;;;;;;;;-5.45;76.20;95774.28;5125205;28;20390;-81
2023/11/24 12:41:15;;;;;;;;;;;;;;;-5.45;76.41;95776.16;5097400;28;19951;-80
2023/11/24 12:43:42;;;;;;;;;;;;;;;-5.41;76.69;95779.88;5115043;28;19927;-81
2023/11/24 12:46:18;;;;;;;;;;;;;;;-5.42;77.14;95788.94;5112770;28;19971;-73
2023/11/24 12:48:45;;;;;;;;;;;;;;;-5.44;77.35;95791.84;5042575;28;19926;-73